createdAt,value
2019-01-11T00:00:52.359Z,1018.24
2019-01-11T00:01:52.426Z,1018.26
2019-01-11T00:02:52.346Z,1018.30
2019-01-11T00:03:52.319Z,1018.24
2019-01-11T00:04:52.508Z,1018.24
2019-01-11T00:05:52.327Z,1018.25
2019-01-11T00:06:52.315Z,1018.20
2019-01-11T00:07:52.296Z,1018.24
2019-01-11T00:08:52.264Z,1018.24
2019-01-11T00:09:52.542Z,1018.20
2019-01-11T00:10:52.283Z,1018.23
2019-01-11T00:11:52.247Z,1018.26
2019-01-11T00:12:52.224Z,1018.25
2019-01-11T00:13:52.227Z,1018.26
2019-01-11T00:14:52.202Z,1018.24
2019-01-11T00:15:52.444Z,1018.21
2019-01-11T00:16:52.230Z,1018.22
2019-01-11T00:17:52.337Z,1018.19
2019-01-11T00:18:52.231Z,1018.22
2019-01-11T00:19:52.156Z,1018.22
2019-01-11T00:20:52.156Z,1018.19
2019-01-11T00:21:52.267Z,1018.23
2019-01-11T00:22:53.354Z,1018.25
2019-01-11T00:23:52.304Z,1018.17
2019-01-11T00:24:52.098Z,1018.16
2019-01-11T00:25:53.731Z,1018.14
2019-01-11T00:26:52.074Z,1018.13
2019-01-11T00:27:52.086Z,1018.13
2019-01-11T00:28:52.073Z,1018.15
2019-01-11T00:29:56.083Z,1018.14
2019-01-11T00:30:52.037Z,1018.12
2019-01-11T00:31:52.025Z,1018.08
2019-01-11T00:32:52.006Z,1018.07
2019-01-11T00:33:53.782Z,1018.08
2019-01-11T00:34:52.250Z,1018.12
2019-01-11T00:35:52.803Z,1018.12
2019-01-11T00:36:52.174Z,1018.06
2019-01-11T00:37:52.198Z,1018.09
2019-01-11T00:38:51.993Z,1018.07
2019-01-11T00:39:51.958Z,1018.02
2019-01-11T00:40:52.172Z,1018.03
2019-01-11T00:41:52.977Z,1018.04
2019-01-11T00:42:52.160Z,1017.97
2019-01-11T00:43:51.919Z,1018.02
2019-01-11T00:44:51.893Z,1018.05
2019-01-11T00:45:52.934Z,1018.00
2019-01-11T00:46:51.880Z,1018.00
2019-01-11T00:47:52.995Z,1018.03
2019-01-11T00:48:52.139Z,1017.99
2019-01-11T00:49:52.226Z,1017.96
2019-01-11T00:50:51.884Z,1018.01
2019-01-11T00:51:51.811Z,1017.98
2019-01-11T00:52:51.952Z,1017.98
2019-01-11T00:53:51.780Z,1017.98
2019-01-11T00:54:51.831Z,1017.91
2019-01-11T00:55:51.942Z,1017.94
2019-01-11T00:56:51.757Z,1017.91
2019-01-11T00:57:51.738Z,1017.90
2019-01-11T00:58:51.729Z,1017.92
2019-01-11T00:59:51.723Z,1017.92
2019-01-11T01:00:51.726Z,1017.92
2019-01-11T01:01:51.902Z,1017.92
2019-01-11T01:02:51.707Z,1017.89
2019-01-11T01:03:51.757Z,1017.88
2019-01-11T01:04:51.662Z,1017.88
2019-01-11T01:05:52.027Z,1017.83
2019-01-11T01:06:51.677Z,1017.87
2019-01-11T01:07:51.833Z,1017.82
2019-01-11T01:08:53.677Z,1017.81
2019-01-11T01:09:51.877Z,1017.83
2019-01-11T01:10:51.630Z,1017.84
2019-01-11T01:11:51.967Z,1017.86
2019-01-11T01:12:51.910Z,1017.84
2019-01-11T01:13:51.730Z,1017.81
2019-01-11T01:14:51.644Z,1017.80
2019-01-11T01:15:52.705Z,1017.81
2019-01-11T01:16:51.650Z,1017.81
2019-01-11T01:17:52.364Z,1017.81
2019-01-11T01:18:52.054Z,1017.79
2019-01-11T01:19:52.261Z,1017.81
2019-01-11T01:20:51.650Z,1017.83
2019-01-11T01:21:53.030Z,1017.82
2019-01-11T01:22:51.662Z,1017.80
2019-01-11T01:23:52.007Z,1017.76
2019-01-11T01:24:51.743Z,1017.72
2019-01-11T01:25:51.467Z,1017.76
2019-01-11T01:26:51.586Z,1017.75
2019-01-11T01:27:51.420Z,1017.73
2019-01-11T01:28:51.451Z,1017.75
2019-01-11T01:29:53.692Z,1017.70
2019-01-11T01:30:51.388Z,1017.73
2019-01-11T01:31:51.380Z,1017.71
2019-01-11T01:32:51.365Z,1017.67
2019-01-11T01:33:51.931Z,1017.70
2019-01-11T01:34:51.344Z,1017.68
2019-01-11T01:35:51.340Z,1017.71
2019-01-11T01:36:51.331Z,1017.70
2019-01-11T01:37:51.379Z,1017.72
2019-01-11T01:38:51.291Z,1017.73
2019-01-11T01:39:51.924Z,1017.67
2019-01-11T01:40:51.273Z,1017.72
2019-01-11T01:41:52.162Z,1017.68
2019-01-11T01:42:51.258Z,1017.71
2019-01-11T01:43:51.259Z,1017.69
2019-01-11T01:44:51.224Z,1017.70
2019-01-11T01:45:52.227Z,1017.70
2019-01-11T01:46:53.304Z,1017.71
2019-01-11T01:47:51.211Z,1017.66
2019-01-11T01:48:51.210Z,1017.64
2019-01-11T01:49:51.219Z,1017.67
2019-01-11T01:51:06.517Z,1017.64
2019-01-11T01:51:51.158Z,1017.66
2019-01-11T01:52:51.158Z,1017.65
2019-01-11T01:53:51.129Z,1017.62
2019-01-11T01:54:51.182Z,1017.62
2019-01-11T01:55:51.105Z,1017.64
2019-01-11T01:56:51.414Z,1017.60
2019-01-11T01:57:51.321Z,1017.62
2019-01-11T01:58:52.568Z,1017.59
2019-01-11T01:59:51.119Z,1017.56
2019-01-11T02:00:51.094Z,1017.64
2019-01-11T02:01:51.043Z,1017.55
2019-01-11T02:02:51.855Z,1017.52
2019-01-11T02:03:51.018Z,1017.53
2019-01-11T02:04:51.023Z,1017.48
2019-01-11T02:05:51.380Z,1017.48
2019-01-11T02:06:50.993Z,1017.53
2019-01-11T02:07:50.987Z,1017.52
2019-01-11T02:08:50.970Z,1017.47
2019-01-11T02:09:50.979Z,1017.45
2019-01-11T02:10:50.967Z,1017.49
2019-01-11T02:11:51.189Z,1017.44
2019-01-11T02:12:50.946Z,1017.45
2019-01-11T02:13:50.953Z,1017.43
2019-01-11T02:14:50.913Z,1017.43
2019-01-11T02:15:51.022Z,1017.40
2019-01-11T02:16:50.884Z,1017.38
2019-01-11T02:17:51.454Z,1017.41
2019-01-11T02:18:50.863Z,1017.43
2019-01-11T02:19:53.264Z,1017.43
2019-01-11T02:20:50.838Z,1017.43
2019-01-11T02:21:50.850Z,1017.43
2019-01-11T02:22:50.824Z,1017.34
2019-01-11T02:23:51.016Z,1017.34
2019-01-11T02:24:50.793Z,1017.39
2019-01-11T02:25:50.792Z,1017.35
2019-01-11T02:26:51.037Z,1017.28
2019-01-11T02:27:50.775Z,1017.33
2019-01-11T02:28:50.764Z,1017.25
2019-01-11T02:29:50.739Z,1017.30
2019-01-11T02:30:50.811Z,1017.29
2019-01-11T02:31:50.720Z,1017.21
2019-01-11T02:32:52.811Z,1017.25
2019-01-11T02:33:50.707Z,1017.18
2019-01-11T02:34:50.740Z,1017.21
2019-01-11T02:35:50.898Z,1017.18
2019-01-11T02:36:50.659Z,1017.15
2019-01-11T02:37:50.650Z,1017.15
2019-01-11T02:38:50.649Z,1017.17
2019-01-11T02:39:50.637Z,1017.18
2019-01-11T02:40:51.785Z,1017.29
2019-01-11T02:41:50.832Z,1017.19
2019-01-11T02:42:50.607Z,1017.16
2019-01-11T02:43:50.592Z,1017.17
2019-01-11T02:44:50.586Z,1017.15
2019-01-11T02:45:50.586Z,1017.14
2019-01-11T02:46:50.786Z,1017.08
2019-01-11T02:47:50.637Z,1017.07
2019-01-11T02:48:50.548Z,1017.11
2019-01-11T02:49:50.530Z,1017.12
2019-01-11T02:50:50.515Z,1017.06
2019-01-11T02:51:51.234Z,1017.02
2019-01-11T02:52:50.829Z,1017.01
2019-01-11T02:53:50.489Z,1017.00
2019-01-11T02:54:50.479Z,1016.96
2019-01-11T02:55:50.474Z,1016.95
2019-01-11T02:56:50.456Z,1016.95
2019-01-11T02:57:50.699Z,1016.93
2019-01-11T02:58:50.451Z,1016.95
2019-01-11T02:59:50.425Z,1016.87
2019-01-11T03:00:50.409Z,1016.85
2019-01-11T03:01:51.611Z,1016.80
2019-01-11T03:02:50.496Z,1016.81
2019-01-11T03:03:50.926Z,1016.80
2019-01-11T03:04:51.190Z,1016.78
2019-01-11T03:05:50.505Z,1016.73
2019-01-11T03:06:50.355Z,1016.72
2019-01-11T03:07:50.339Z,1016.73
2019-01-11T03:08:50.323Z,1016.68
2019-01-11T03:09:50.524Z,1016.65
2019-01-11T03:10:51.658Z,1016.61
2019-01-11T03:11:50.304Z,1016.55
2019-01-11T03:12:51.065Z,1016.55
2019-01-11T03:13:50.271Z,1016.56
2019-01-11T03:14:50.429Z,1016.55
2019-01-11T03:15:51.320Z,1016.53
2019-01-11T03:16:56.508Z,1016.53
2019-01-11T03:17:50.237Z,1016.53
2019-01-11T03:18:50.214Z,1016.51
2019-01-11T03:19:50.295Z,1016.51
2019-01-11T03:20:54.249Z,1016.45
2019-01-11T03:21:50.236Z,1016.44
2019-01-11T03:22:51.330Z,1016.37
2019-01-11T03:23:50.182Z,1016.38
2019-01-11T03:24:50.564Z,1016.35
2019-01-11T03:25:50.137Z,1016.36
2019-01-11T03:26:50.371Z,1016.38
2019-01-11T03:27:50.119Z,1016.33
2019-01-11T03:28:50.105Z,1016.33
2019-01-11T03:29:51.270Z,1016.27
2019-01-11T03:30:52.413Z,1016.27
2019-01-11T03:31:50.329Z,1016.28
2019-01-11T03:32:50.058Z,1016.28
2019-01-11T03:33:50.055Z,1016.21
2019-01-11T03:34:50.703Z,1016.22
2019-01-11T03:35:50.032Z,1016.20
2019-01-11T03:36:50.098Z,1016.20
2019-01-11T03:37:50.151Z,1016.20
2019-01-11T03:38:50.420Z,1016.14
2019-01-11T03:39:49.990Z,1016.16
2019-01-11T03:40:50.026Z,1016.16
2019-01-11T03:41:52.555Z,1016.09
2019-01-11T03:42:50.289Z,1016.13
2019-01-11T03:43:50.899Z,1016.09
2019-01-11T03:44:50.934Z,1016.10
2019-01-11T03:45:51.681Z,1016.05
2019-01-11T03:46:49.927Z,1016.04
2019-01-11T03:47:49.908Z,1016.03
2019-01-11T03:48:49.888Z,1016.05
2019-01-11T03:49:54.755Z,1016.04
2019-01-11T03:50:50.409Z,1016.06
2019-01-11T03:51:51.722Z,1016.05
2019-01-11T03:52:49.848Z,1016.07
2019-01-11T03:53:50.110Z,1016.05
2019-01-11T03:54:49.842Z,1016.03
2019-01-11T03:55:50.391Z,1016.04
2019-01-11T03:56:49.870Z,1015.95
2019-01-11T03:57:49.846Z,1015.96
2019-01-11T03:58:49.781Z,1015.97
2019-01-11T03:59:49.773Z,1015.94
2019-01-11T04:00:49.751Z,1015.94
2019-01-11T04:01:50.770Z,1015.86
2019-01-11T04:02:49.745Z,1015.89
2019-01-11T04:03:49.751Z,1015.90
2019-01-11T04:04:49.716Z,1015.89
2019-01-11T04:05:51.023Z,1015.95
2019-01-11T04:06:49.829Z,1015.88
2019-01-11T04:07:49.916Z,1015.88
2019-01-11T04:08:49.835Z,1015.86
2019-01-11T04:09:49.708Z,1015.87
2019-01-11T04:10:49.842Z,1015.82
2019-01-11T04:11:49.688Z,1015.84
2019-01-11T04:12:51.550Z,1015.83
2019-01-11T04:13:49.913Z,1015.84
2019-01-11T04:14:49.857Z,1015.79
2019-01-11T04:15:49.710Z,1015.78
2019-01-11T04:16:49.692Z,1015.78
2019-01-11T04:17:49.696Z,1015.72
2019-01-11T04:18:49.675Z,1015.71
2019-01-11T04:19:49.938Z,1015.70
2019-01-11T04:20:55.919Z,1015.69
2019-01-11T04:21:49.682Z,1015.70
2019-01-11T04:22:49.667Z,1015.65
2019-01-11T04:23:49.690Z,1015.63
2019-01-11T04:24:49.687Z,1015.65
2019-01-11T04:25:50.339Z,1015.62
2019-01-11T04:26:49.477Z,1015.58
2019-01-11T04:27:49.776Z,1015.56
2019-01-11T04:28:49.452Z,1015.55
2019-01-11T04:29:50.428Z,1015.57
2019-01-11T04:30:49.438Z,1015.51
2019-01-11T04:31:50.451Z,1015.45
2019-01-11T04:32:49.417Z,1015.49
2019-01-11T04:33:50.383Z,1015.42
2019-01-11T04:34:49.402Z,1015.44
2019-01-11T04:35:50.362Z,1015.41
2019-01-11T04:36:49.371Z,1015.41
2019-01-11T04:37:50.161Z,1015.36
2019-01-11T04:38:49.491Z,1015.33
2019-01-11T04:39:49.348Z,1015.36
2019-01-11T04:40:49.324Z,1015.35
2019-01-11T04:41:49.318Z,1015.34
2019-01-11T04:42:49.325Z,1015.34
2019-01-11T04:43:49.677Z,1015.35
2019-01-11T04:44:49.407Z,1015.34
2019-01-11T04:45:49.281Z,1015.32
2019-01-11T04:46:49.301Z,1015.31
2019-01-11T04:47:49.465Z,1015.28
2019-01-11T04:48:49.995Z,1015.30
2019-01-11T04:49:49.231Z,1015.26
2019-01-11T04:50:49.213Z,1015.26
2019-01-11T04:51:49.217Z,1015.22
2019-01-11T04:52:49.199Z,1015.20
2019-01-11T04:53:49.385Z,1015.20
2019-01-11T04:54:49.214Z,1015.17
2019-01-11T04:55:49.663Z,1015.21
2019-01-11T04:56:49.173Z,1015.18
2019-01-11T04:57:52.093Z,1015.19
2019-01-11T04:58:50.080Z,1015.17
2019-01-11T04:59:49.317Z,1015.15
2019-01-11T05:00:50.101Z,1015.14
2019-01-11T05:01:49.399Z,1015.16
2019-01-11T05:02:51.482Z,1015.12
2019-01-11T05:03:49.977Z,1015.11
2019-01-11T05:04:51.012Z,1015.08
2019-01-11T05:05:49.216Z,1015.08
2019-01-11T05:06:49.112Z,1015.10
2019-01-11T05:07:49.107Z,1015.06
2019-01-11T05:08:49.042Z,1015.03
2019-01-11T05:09:49.754Z,1015.02
2019-01-11T05:10:49.105Z,1015.01
2019-01-11T05:11:49.865Z,1014.99
2019-01-11T05:12:51.695Z,1014.93
2019-01-11T05:13:49.001Z,1014.93
2019-01-11T05:14:49.149Z,1014.90
2019-01-11T05:15:49.292Z,1014.83
2019-01-11T05:16:51.055Z,1014.91
2019-01-11T05:17:49.310Z,1014.91
2019-01-11T05:18:49.238Z,1014.85
2019-01-11T05:19:49.121Z,1014.84
2019-01-11T05:20:50.387Z,1014.87
2019-01-11T05:21:49.173Z,1014.87
2019-01-11T05:22:48.871Z,1014.82
2019-01-11T05:23:53.780Z,1014.86
2019-01-11T05:24:49.870Z,1014.81
2019-01-11T05:25:49.047Z,1014.78
2019-01-11T05:26:48.849Z,1014.78
2019-01-11T05:27:49.061Z,1014.73
2019-01-11T05:28:49.002Z,1014.72
2019-01-11T05:29:49.219Z,1014.70
2019-01-11T05:30:48.908Z,1014.72
2019-01-11T05:31:49.670Z,1014.68
2019-01-11T05:32:49.122Z,1014.67
2019-01-11T05:33:49.088Z,1014.67
2019-01-11T05:34:49.147Z,1014.65
2019-01-11T05:35:49.083Z,1014.61
2019-01-11T05:36:49.996Z,1014.66
2019-01-11T05:37:50.243Z,1014.64
2019-01-11T05:38:49.068Z,1014.69
2019-01-11T05:39:49.138Z,1014.68
2019-01-11T05:40:49.063Z,1014.66
2019-01-11T05:41:52.322Z,1014.63
2019-01-11T05:42:54.084Z,1014.59
2019-01-11T05:43:50.548Z,1014.59
2019-01-11T05:44:51.907Z,1014.54
2019-01-11T05:45:49.187Z,1014.50
2019-01-11T05:46:58.018Z,1014.50
2019-01-11T05:47:51.923Z,1014.51
2019-01-11T05:48:49.296Z,1014.52
2019-01-11T05:49:50.280Z,1014.48
2019-01-11T05:50:49.147Z,1014.45
2019-01-11T05:51:49.206Z,1014.41
2019-01-11T05:52:49.357Z,1014.45
2019-01-11T05:53:49.234Z,1014.39
2019-01-11T05:54:50.864Z,1014.35
2019-01-11T05:55:49.485Z,1014.36
2019-01-11T05:56:49.223Z,1014.31
2019-01-11T05:57:51.352Z,1014.31
2019-01-11T05:58:49.149Z,1014.33
2019-01-11T05:59:49.034Z,1014.30
2019-01-11T06:00:56.398Z,1014.30
2019-01-11T06:01:49.053Z,1014.30
2019-01-11T06:02:48.965Z,1014.27
2019-01-11T06:03:49.099Z,1014.29
2019-01-11T06:04:48.980Z,1014.32
2019-01-11T06:05:51.170Z,1014.28
2019-01-11T06:06:53.305Z,1014.26
2019-01-11T06:07:51.625Z,1014.17
2019-01-11T06:08:48.906Z,1014.24
2019-01-11T06:09:49.868Z,1014.20
2019-01-11T06:10:49.975Z,1014.22
2019-01-11T06:11:52.141Z,1014.17
2019-01-11T06:12:49.923Z,1014.23
2019-01-11T06:13:49.718Z,1014.18
2019-01-11T06:14:49.441Z,1014.19
2019-01-11T06:15:49.719Z,1014.13
2019-01-11T06:16:51.999Z,1014.14
2019-01-11T06:17:49.039Z,1014.12
2019-01-11T06:18:49.388Z,1014.16
2019-01-11T06:19:49.226Z,1014.16
2019-01-11T06:20:49.157Z,1014.12
2019-01-11T06:21:49.077Z,1014.11
2019-01-11T06:22:50.330Z,1014.04
2019-01-11T06:23:49.470Z,1014.01
2019-01-11T06:24:49.079Z,1014.01
2019-01-11T06:25:49.260Z,1014.02
2019-01-11T06:26:49.812Z,1013.96
2019-01-11T06:27:51.460Z,1013.97
2019-01-11T06:28:49.252Z,1013.93
2019-01-11T06:29:49.768Z,1013.92
2019-01-11T06:30:49.035Z,1013.92
2019-01-11T06:31:49.109Z,1013.90
2019-01-11T06:32:49.177Z,1013.90
2019-01-11T06:33:50.392Z,1013.89
2019-01-11T06:34:48.946Z,1013.88
2019-01-11T06:35:49.006Z,1013.85
2019-01-11T06:36:49.007Z,1013.85
2019-01-11T06:37:49.006Z,1013.90
2019-01-11T06:38:49.033Z,1013.84
2019-01-11T06:39:50.224Z,1013.84
2019-01-11T06:40:49.041Z,1013.83
2019-01-11T06:41:48.933Z,1013.81
2019-01-11T06:42:49.040Z,1013.77
2019-01-11T06:43:48.928Z,1013.75
2019-01-11T06:44:51.532Z,1013.74
2019-01-11T06:45:50.551Z,1013.74
2019-01-11T06:46:48.921Z,1013.74
2019-01-11T06:47:47.956Z,1013.68
2019-01-11T06:48:47.937Z,1013.68
2019-01-11T06:49:47.928Z,1013.70
2019-01-11T06:50:50.611Z,1013.71
2019-01-11T06:51:47.938Z,1013.64
2019-01-11T06:52:47.904Z,1013.64
2019-01-11T06:53:47.935Z,1013.68
2019-01-11T06:54:47.934Z,1013.63
2019-01-11T06:55:54.097Z,1013.61
2019-01-11T06:56:48.496Z,1013.61
2019-01-11T06:57:49.727Z,1013.59
2019-01-11T06:59:59.762Z,1013.62
2019-01-11T07:00:59.764Z,1013.62
2019-01-11T07:01:59.180Z,1013.60
2019-01-11T07:02:59.975Z,1013.57
2019-01-11T07:03:59.157Z,1013.66
2019-01-11T07:04:59.145Z,1013.61
2019-01-11T07:05:59.219Z,1013.62
2019-01-11T07:07:02.321Z,1013.57
2019-01-11T07:07:59.118Z,1013.62
2019-01-11T07:09:01.925Z,1013.59
2019-01-11T07:09:59.097Z,1013.61
2019-01-11T07:10:59.080Z,1013.59
2019-01-11T07:12:00.936Z,1013.62
2019-01-11T07:13:02.029Z,1013.60
2019-01-11T07:13:59.360Z,1013.62
2019-01-11T07:14:59.839Z,1013.58
2019-01-11T07:15:59.448Z,1013.56
2019-01-11T07:17:00.098Z,1013.63
2019-01-11T07:18:01.600Z,1013.67
2019-01-11T07:18:59.130Z,1013.61
2019-01-11T07:20:05.363Z,1013.60
2019-01-11T07:21:00.490Z,1013.65
2019-01-11T07:21:59.117Z,1013.61
2019-01-11T07:22:59.255Z,1013.61
2019-01-11T07:24:00.203Z,1013.69
2019-01-11T07:24:58.930Z,1013.67
2019-01-11T07:25:58.941Z,1013.61
2019-01-11T07:26:58.936Z,1013.59
2019-01-11T07:27:58.906Z,1013.63
2019-01-11T07:28:58.885Z,1013.63
2019-01-11T07:30:10.101Z,1013.63
2019-01-11T07:30:58.874Z,1013.66
2019-01-11T07:31:58.872Z,1013.63
2019-01-11T07:32:58.897Z,1013.64
2019-01-11T07:33:58.845Z,1013.65
2019-01-11T07:34:59.489Z,1013.62
2019-01-11T07:35:58.948Z,1013.57
2019-01-11T07:36:58.856Z,1013.58
2019-01-11T07:37:59.012Z,1013.60
2019-01-11T07:38:58.792Z,1013.59
2019-01-11T07:39:59.230Z,1013.57
2019-01-11T07:41:01.268Z,1013.63
2019-01-11T07:41:59.039Z,1013.57
2019-01-11T07:42:58.757Z,1013.56
2019-01-11T07:43:58.734Z,1013.52
2019-01-11T07:45:00.245Z,1013.51
2019-01-11T07:46:04.329Z,1013.55
2019-01-11T07:46:59.719Z,1013.50
2019-01-11T07:47:58.681Z,1013.58
2019-01-11T07:48:58.698Z,1013.53
2019-01-11T07:49:58.722Z,1013.53
2019-01-11T07:50:59.062Z,1013.50
2019-01-11T07:51:58.643Z,1013.56
2019-01-11T07:52:58.630Z,1013.57
2019-01-11T07:53:58.689Z,1013.57
2019-01-11T07:54:58.658Z,1013.57
2019-01-11T07:55:59.044Z,1013.64
2019-01-11T07:56:59.695Z,1013.59
2019-01-11T07:57:58.701Z,1013.58
2019-01-11T07:58:58.739Z,1013.53
2019-01-11T07:59:58.628Z,1013.56
2019-01-11T08:00:58.569Z,1013.52
2019-01-11T08:02:00.776Z,1013.56
2019-01-11T08:02:58.745Z,1013.48
2019-01-11T08:03:58.644Z,1013.45
2019-01-11T08:04:58.542Z,1013.49
2019-01-11T08:05:58.525Z,1013.42
2019-01-11T08:06:58.659Z,1013.44
2019-01-11T08:07:59.658Z,1013.40
2019-01-11T08:08:58.471Z,1013.36
2019-01-11T08:09:58.453Z,1013.35
2019-01-11T08:10:58.445Z,1013.38
2019-01-11T08:11:58.436Z,1013.41
2019-01-11T08:12:58.417Z,1013.38
2019-01-11T08:13:58.620Z,1013.37
2019-01-11T08:14:58.671Z,1013.34
2019-01-11T08:15:58.417Z,1013.31
2019-01-11T08:16:58.503Z,1013.30
2019-01-11T08:17:59.232Z,1013.30
2019-01-11T08:18:58.631Z,1013.24
2019-01-11T08:19:58.744Z,1013.26
2019-01-11T08:20:59.919Z,1013.17
2019-01-11T08:21:58.903Z,1013.22
2019-01-11T08:22:59.614Z,1013.19
2019-01-11T08:23:58.682Z,1013.16
2019-01-11T08:24:58.717Z,1013.11
2019-01-11T08:25:58.303Z,1013.11
2019-01-11T08:26:58.288Z,1013.07
2019-01-11T08:27:58.273Z,1013.08
2019-01-11T08:28:58.284Z,1013.08
2019-01-11T08:29:58.288Z,1013.10
2019-01-11T08:30:58.659Z,1013.06
2019-01-11T08:31:58.227Z,1013.07
2019-01-11T08:32:58.200Z,1013.05
2019-01-11T08:33:58.203Z,1013.06
2019-01-11T08:34:58.188Z,1013.07
2019-01-11T08:35:58.177Z,1013.02
2019-01-11T08:36:58.542Z,1013.08
2019-01-11T08:37:58.424Z,1013.02
2019-01-11T08:38:58.258Z,1013.05
2019-01-11T08:39:58.145Z,1012.99
2019-01-11T08:40:58.241Z,1013.00
2019-01-11T08:41:58.268Z,1012.96
2019-01-11T08:42:58.142Z,1012.92
2019-01-11T08:43:58.091Z,1012.91
2019-01-11T08:44:58.096Z,1012.93
2019-01-11T08:45:58.977Z,1012.94
2019-01-11T08:46:58.568Z,1012.92
2019-01-11T08:47:58.710Z,1012.89
2019-01-11T08:48:59.291Z,1012.89
2019-01-11T08:49:59.089Z,1012.84
2019-01-11T08:51:02.601Z,1012.88
2019-01-11T08:51:58.251Z,1012.90
2019-01-11T08:52:57.980Z,1012.88
2019-01-11T08:53:58.188Z,1012.83
2019-01-11T08:54:57.989Z,1012.78
2019-01-11T08:55:58.048Z,1012.77
2019-01-11T08:56:57.954Z,1012.70
2019-01-11T08:57:58.086Z,1012.74
2019-01-11T08:58:57.922Z,1012.70
2019-01-11T08:59:58.606Z,1012.74
2019-01-11T09:00:57.988Z,1012.75
2019-01-11T09:01:57.896Z,1012.71
2019-01-11T09:02:57.874Z,1012.75
2019-01-11T09:03:57.882Z,1012.74
2019-01-11T09:04:58.247Z,1012.69
2019-01-11T09:05:58.007Z,1012.73
2019-01-11T09:06:58.537Z,1012.71
2019-01-11T09:07:59.322Z,1012.69
2019-01-11T09:08:57.951Z,1012.70
2019-01-11T09:09:57.796Z,1012.73
2019-01-11T09:10:58.314Z,1012.70
2019-01-11T09:11:57.774Z,1012.73
2019-01-11T09:13:00.563Z,1012.68
2019-01-11T09:13:57.780Z,1012.71
2019-01-11T09:14:57.962Z,1012.72
2019-01-11T09:15:57.731Z,1012.71
2019-01-11T09:16:59.925Z,1012.73
2019-01-11T09:17:57.711Z,1012.80
2019-01-11T09:18:58.559Z,1012.71
2019-01-11T09:19:57.913Z,1012.73
2019-01-11T09:20:58.563Z,1012.66
2019-01-11T09:21:58.981Z,1012.66
2019-01-11T09:22:58.089Z,1012.69
2019-01-11T09:23:58.034Z,1012.64
2019-01-11T09:24:57.676Z,1012.68
2019-01-11T09:25:57.853Z,1012.63
2019-01-11T09:26:57.679Z,1012.63
2019-01-11T09:27:58.234Z,1012.61
2019-01-11T09:28:57.658Z,1012.56
2019-01-11T09:29:57.896Z,1012.54
2019-01-11T09:30:57.729Z,1012.55
2019-01-11T09:31:57.737Z,1012.57
2019-01-11T09:32:57.757Z,1012.58
2019-01-11T09:33:58.449Z,1012.53
2019-01-11T09:34:57.525Z,1012.48
2019-01-11T09:35:57.525Z,1012.45
2019-01-11T09:36:57.697Z,1012.46
2019-01-11T09:37:57.695Z,1012.50
2019-01-11T09:38:58.466Z,1012.48
2019-01-11T09:39:57.654Z,1012.38
2019-01-11T09:40:57.570Z,1012.37
2019-01-11T09:41:57.460Z,1012.33
2019-01-11T09:42:57.467Z,1012.31
2019-01-11T09:43:57.804Z,1012.33
2019-01-11T09:44:57.497Z,1012.29
2019-01-11T09:45:57.894Z,1012.29
2019-01-11T09:46:58.723Z,1012.29
2019-01-11T09:47:57.758Z,1012.31
2019-01-11T09:48:57.412Z,1012.27
2019-01-11T09:49:58.325Z,1012.29
2019-01-11T09:50:57.357Z,1012.29
2019-01-11T09:51:57.354Z,1012.30
2019-01-11T09:52:58.486Z,1012.28
2019-01-11T09:53:58.073Z,1012.32
2019-01-11T09:54:57.360Z,1012.24
2019-01-11T09:55:57.305Z,1012.31
2019-01-11T09:56:57.297Z,1012.31
2019-01-11T09:57:57.283Z,1012.23
2019-01-11T09:58:57.283Z,1012.21
2019-01-11T09:59:57.883Z,1012.23
2019-01-11T10:00:59.212Z,1012.23
2019-01-11T10:01:57.325Z,1012.13
2019-01-11T10:02:57.248Z,1012.15
2019-01-11T10:03:57.433Z,1012.15
2019-01-11T10:04:57.217Z,1012.15
2019-01-11T10:05:58.097Z,1012.12
2019-01-11T10:06:57.362Z,1012.18
2019-01-11T10:07:57.175Z,1012.18
2019-01-11T10:08:57.156Z,1012.14
2019-01-11T10:09:57.159Z,1012.16
2019-01-11T10:10:57.345Z,1012.16
2019-01-11T10:11:57.127Z,1012.15
2019-01-11T10:12:57.746Z,1012.05
2019-01-11T10:13:57.116Z,1012.03
2019-01-11T10:14:57.104Z,1011.99
2019-01-11T10:15:57.097Z,1012.00
2019-01-11T10:16:57.292Z,1011.96
2019-01-11T10:17:57.061Z,1011.92
2019-01-11T10:18:57.125Z,1011.89
2019-01-11T10:19:57.906Z,1011.86
2019-01-11T10:20:57.214Z,1011.91
2019-01-11T10:21:58.167Z,1011.81
2019-01-11T10:22:57.204Z,1011.81
2019-01-11T10:23:59.263Z,1011.78
2019-01-11T10:24:57.146Z,1011.77
2019-01-11T10:26:00.776Z,1011.80
2019-01-11T10:26:57.459Z,1011.77
2019-01-11T10:27:56.963Z,1011.77
2019-01-11T10:28:56.942Z,1011.74
2019-01-11T10:29:57.098Z,1011.71
2019-01-11T10:31:00.669Z,1011.64
2019-01-11T10:31:56.915Z,1011.58
2019-01-11T10:32:56.936Z,1011.60
2019-01-11T10:33:56.905Z,1011.56
2019-01-11T10:34:56.884Z,1011.57
2019-01-11T10:35:57.274Z,1011.52
2019-01-11T10:36:57.639Z,1011.53
2019-01-11T10:37:56.850Z,1011.52
2019-01-11T10:38:57.117Z,1011.54
2019-01-11T10:39:56.852Z,1011.52
2019-01-11T10:40:56.824Z,1011.45
2019-01-11T10:41:56.798Z,1011.44
2019-01-11T10:42:56.791Z,1011.43
2019-01-11T10:43:56.778Z,1011.40
2019-01-11T10:44:59.946Z,1011.42
2019-01-11T10:45:56.781Z,1011.38
2019-01-11T10:46:56.747Z,1011.32
2019-01-11T10:47:56.744Z,1011.30
2019-01-11T10:48:56.755Z,1011.26
2019-01-11T10:49:57.043Z,1011.27
2019-01-11T10:50:56.747Z,1011.26
2019-01-11T10:51:56.865Z,1011.24
2019-01-11T10:52:56.813Z,1011.26
2019-01-11T10:53:56.682Z,1011.21
2019-01-11T10:54:56.767Z,1011.24
2019-01-11T10:55:56.654Z,1011.29
2019-01-11T10:56:57.330Z,1011.26
2019-01-11T10:57:56.688Z,1011.20
2019-01-11T10:58:56.727Z,1011.17
2019-01-11T10:59:56.621Z,1011.13
2019-01-11T11:00:56.610Z,1011.13
2019-01-11T11:01:56.597Z,1011.16
2019-01-11T11:02:56.819Z,1011.12
2019-01-11T11:03:56.567Z,1011.20
2019-01-11T11:04:56.550Z,1011.17
2019-01-11T11:05:56.993Z,1011.06
2019-01-11T11:06:56.641Z,1011.09
2019-01-11T11:07:57.325Z,1011.05
2019-01-11T11:08:56.503Z,1011.08
2019-01-11T11:09:56.611Z,1011.09
2019-01-11T11:10:56.509Z,1011.01
2019-01-11T11:11:56.511Z,1011.04
2019-01-11T11:12:56.473Z,1011.01
2019-01-11T11:13:56.998Z,1010.98
2019-01-11T11:14:56.456Z,1010.95
2019-01-11T11:15:56.452Z,1010.98
2019-01-11T11:16:56.432Z,1011.01
2019-01-11T11:17:56.628Z,1010.95
2019-01-11T11:18:56.429Z,1010.97
2019-01-11T11:20:00.040Z,1010.88
2019-01-11T11:20:56.392Z,1010.92
2019-01-11T11:21:56.383Z,1010.91
2019-01-11T11:22:56.360Z,1010.86
2019-01-11T11:23:56.715Z,1010.80
2019-01-11T11:24:56.359Z,1010.78
2019-01-11T11:25:56.705Z,1010.78
2019-01-11T11:26:56.615Z,1010.76
2019-01-11T11:27:56.310Z,1010.69
2019-01-11T11:28:56.353Z,1010.73
2019-01-11T11:29:56.680Z,1010.68
2019-01-11T11:30:56.270Z,1010.70
2019-01-11T11:31:56.619Z,1010.66
2019-01-11T11:32:56.597Z,1010.69
2019-01-11T11:33:57.770Z,1010.66
2019-01-11T11:35:02.137Z,1010.61
2019-01-11T11:35:56.219Z,1010.55
2019-01-11T11:36:56.519Z,1010.52
2019-01-11T11:37:56.210Z,1010.52
2019-01-11T11:38:56.206Z,1010.50
2019-01-11T11:39:56.530Z,1010.43
2019-01-11T11:40:56.166Z,1010.42
2019-01-11T11:41:56.214Z,1010.37
2019-01-11T11:42:56.147Z,1010.43
2019-01-11T11:43:56.131Z,1010.41
2019-01-11T11:44:56.323Z,1010.42
2019-01-11T11:45:56.163Z,1010.39
2019-01-11T11:46:56.106Z,1010.36
2019-01-11T11:47:56.108Z,1010.36
2019-01-11T11:48:56.229Z,1010.35
2019-01-11T11:49:56.537Z,1010.39
2019-01-11T11:50:56.188Z,1010.35
2019-01-11T11:51:56.036Z,1010.25
2019-01-11T11:52:56.030Z,1010.22
2019-01-11T11:53:56.020Z,1010.17
2019-01-11T11:54:56.011Z,1010.17
2019-01-11T11:55:59.973Z,1010.12
2019-01-11T11:56:56.178Z,1010.07
2019-01-11T11:57:56.007Z,1010.06
2019-01-11T11:58:56.084Z,1010.00
2019-01-11T11:59:55.985Z,1010.05
2019-01-11T12:00:56.192Z,1009.94
2019-01-11T12:01:56.182Z,1009.97
2019-01-11T12:02:55.943Z,1009.93
2019-01-11T12:03:55.923Z,1009.93
2019-01-11T12:04:55.908Z,1009.89
2019-01-11T12:05:55.895Z,1009.88
2019-01-11T12:06:55.878Z,1009.82